Time;durP1;ratioP1;P1;durP2;ratioP2;P2;SDS_P1;SDS_P2;PMS_P1;PMS_P2;Temp;Humidity;BMP_temperature;BMP_pressure;BME280_temperature;BME280_humidity;BME280_pressure;Samples;Min_cycle;Max_cycle;Signal;HPM_P1;HPM_P2
2021/06/12 00:01:41;;;;;;;13.23;7.90;;;15.30;99.90;;;;;;4993651;28;20263;-73
2021/06/12 00:04:08;;;;;;;11.47;8.30;;;15.40;99.90;;;;;;4993713;28;20303;-74
2021/06/12 00:06:34;;;;;;;13.50;8.40;;;15.40;99.90;;;;;;4995479;28;20201;-73
2021/06/12 00:09:01;;;;;;;12.50;8.70;;;15.40;99.90;;;;;;4994093;28;20283;-74
2021/06/12 00:11:27;;;;;;;13.13;8.60;;;15.30;99.90;;;;;;4994008;28;20319;-74
2021/06/12 00:13:55;;;;;;;14.50;8.23;;;15.30;99.90;;;;;;4997567;28;20211;-74
2021/06/12 00:16:22;;;;;;;16.77;8.53;;;15.20;99.90;;;;;;4997214;28;20208;-73
2021/06/12 00:18:48;;;;;;;12.43;8.80;;;15.30;99.90;;;;;;4994581;28;20661;-74
2021/06/12 00:21:15;;;;;;;15.50;8.17;;;15.20;99.90;;;;;;4994163;28;20227;-74
2021/06/12 00:23:41;;;;;;;15.23;9.03;;;15.20;99.90;;;;;;4992778;28;20236;-74
2021/06/12 00:26:07;;;;;;;15.80;8.40;;;15.20;99.90;;;;;;4992564;28;20208;-73
2021/06/12 00:28:37;;;;;;;13.80;8.23;;;15.10;99.90;;;;;;4994877;28;20295;-74
2021/06/12 00:31:05;;;;;;;13.57;9.47;;;15.10;99.90;;;;;;4996594;28;20836;-74
2021/06/12 00:33:31;;;;;;;11.87;9.20;;;15.00;99.90;;;;;;4991577;28;20200;-73
2021/06/12 00:35:58;;;;;;;12.33;8.77;;;14.90;99.90;;;;;;4992164;28;20667;-74
2021/06/12 00:38:24;;;;;;;12.83;9.13;;;14.90;99.90;;;;;;4994156;28;20287;-74
2021/06/12 00:40:51;;;;;;;17.17;9.13;;;14.80;99.90;;;;;;4992415;28;20237;-74
2021/06/12 00:43:17;;;;;;;13.77;9.10;;;14.80;99.90;;;;;;4995070;28;20295;-74
2021/06/12 00:45:46;;;;;;;11.60;8.63;;;14.80;99.90;;;;;;4995069;28;20743;-74
2021/06/12 00:48:14;;;;;;;15.90;9.43;;;14.70;99.90;;;;;;4995003;28;20574;-74
2021/06/12 00:50:42;;;;;;;14.33;9.50;;;14.70;99.90;;;;;;4993857;28;20691;-74
2021/06/12 00:53:08;;;;;;;13.53;9.07;;;14.80;99.90;;;;;;4993968;28;20218;-74
2021/06/12 00:55:36;;;;;;;12.90;9.37;;;14.70;99.90;;;;;;4996472;28;20331;-74
2021/06/12 00:58:02;;;;;;;12.10;9.27;;;14.70;99.90;;;;;;4994269;28;20220;-74
2021/06/12 01:00:29;;;;;;;12.83;9.10;;;14.60;99.90;;;;;;4993376;28;20229;-74
2021/06/12 01:02:56;;;;;;;14.37;9.30;;;14.60;99.90;;;;;;4994707;28;20303;-74
2021/06/12 01:05:24;;;;;;;14.57;9.40;;;14.50;99.90;;;;;;4994539;28;20212;-73
2021/06/12 01:07:50;;;;;;;14.40;8.90;;;14.50;99.90;;;;;;4997449;28;20227;-74
2021/06/12 01:10:19;;;;;;;12.93;9.47;;;14.50;99.90;;;;;;4991438;28;20212;-74
2021/06/12 01:13:08;;;;;;;12.70;8.67;;;14.40;99.90;;;;;;4993479;28;20291;-74
2021/06/12 01:15:41;;;;;;;16.17;9.13;;;14.40;99.90;;;;;;4992937;28;20323;-74
2021/06/12 01:18:12;;;;;;;14.47;10.20;;;14.30;99.90;;;;;;4994845;28;20204;-73
2021/06/12 01:21:03;;;;;;;13.33;9.47;;;14.30;99.90;;;;;;4996086;28;20720;-74
2021/06/12 01:24:12;;;;;;;15.07;9.60;;;14.20;99.90;;;;;;4992813;28;20633;-73
2021/06/12 01:27:02;;;;;;;13.93;10.03;;;14.20;99.90;;;;;;4995281;28;20287;-73
2021/06/12 01:29:38;;;;;;;14.63;9.83;;;14.10;99.90;;;;;;4968374;28;20590;-74
2021/06/12 01:32:08;;;;;;;14.63;10.00;;;14.10;99.90;;;;;;4995101;28;20267;-74
2021/06/12 01:34:37;;;;;;;15.47;10.83;;;14.10;99.90;;;;;;4993429;28;20354;-73
2021/06/12 01:37:06;;;;;;;16.73;10.43;;;14.10;99.90;;;;;;4994598;28;20208;-74
2021/06/12 01:39:33;;;;;;;14.77;10.57;;;14.10;99.90;;;;;;4996563;28;20230;-73
2021/06/12 01:42:02;;;;;;;11.83;9.77;;;14.00;99.90;;;;;;4996068;28;20231;-75
2021/06/12 01:44:31;;;;;;;13.27;10.17;;;14.00;99.90;;;;;;4997379;28;20204;-73
2021/06/12 01:46:58;;;;;;;17.70;10.63;;;14.00;99.90;;;;;;4996832;28;20216;-74
2021/06/12 01:49:27;;;;;;;13.03;10.30;;;14.00;99.90;;;;;;4995532;28;20283;-74
2021/06/12 01:51:54;;;;;;;18.30;10.37;;;13.90;99.90;;;;;;4996366;28;20220;-74
2021/06/12 01:54:22;;;;;;;11.90;9.90;;;13.90;99.90;;;;;;4995952;28;20452;-75
2021/06/12 01:56:49;;;;;;;15.37;10.80;;;13.90;99.90;;;;;;4996586;28;20363;-73
2021/06/12 01:59:16;;;;;;;15.77;10.43;;;13.80;99.90;;;;;;4996211;28;20601;-74
2021/06/12 02:01:47;;;;;;;13.37;9.93;;;13.80;99.90;;;;;;5004213;28;20280;-72
2021/06/12 02:04:16;;;;;;;15.30;10.90;;;13.80;99.90;;;;;;5003691;28;20219;-75
2021/06/12 02:06:45;;;;;;;15.40;11.23;;;13.80;99.90;;;;;;4995062;28;21641;-74
2021/06/12 02:09:14;;;;;;;16.27;10.80;;;13.70;99.90;;;;;;4996478;28;20230;-74
2021/06/12 02:11:41;;;;;;;16.40;11.23;;;13.70;99.90;;;;;;4997951;28;20515;-75
2021/06/12 02:14:09;;;;;;;15.23;11.13;;;13.70;99.90;;;;;;4994578;28;20209;-73
2021/06/12 02:16:37;;;;;;;12.50;10.13;;;13.70;99.90;;;;;;4993971;28;20616;-75
2021/06/12 02:19:04;;;;;;;19.57;10.67;;;13.70;99.90;;;;;;4996864;28;20236;-75
2021/06/12 02:21:34;;;;;;;17.20;10.67;;;13.70;99.90;;;;;;4995198;28;20595;-72
2021/06/12 02:24:03;;;;;;;16.50;10.73;;;13.70;99.90;;;;;;4994381;28;20307;-74
2021/06/12 02:26:32;;;;;;;14.40;11.17;;;13.70;99.90;;;;;;4995521;28;20205;-72
2021/06/12 02:28:59;;;;;;;16.67;11.53;;;13.70;99.90;;;;;;4994901;28;20693;-73
2021/06/12 02:31:28;;;;;;;16.77;10.77;;;13.60;99.90;;;;;;4995682;28;20955;-74
2021/06/12 02:33:55;;;;;;;13.43;10.40;;;13.60;99.90;;;;;;4998524;28;20319;-74
2021/06/12 02:36:21;;;;;;;18.43;11.03;;;13.60;99.90;;;;;;4998027;28;20606;-75
2021/06/12 02:38:48;;;;;;;15.13;10.97;;;13.60;99.90;;;;;;4997488;28;20258;-74
2021/06/12 02:41:16;;;;;;;16.50;11.60;;;13.60;99.90;;;;;;4996635;28;20228;-72
2021/06/12 02:43:43;;;;;;;17.90;10.90;;;13.60;99.90;;;;;;4996488;28;20299;-74
2021/06/12 02:46:13;;;;;;;13.10;10.67;;;13.50;99.90;;;;;;4996383;28;20209;-74
2021/06/12 02:48:43;;;;;;;16.47;10.70;;;13.60;99.90;;;;;;4993605;28;20808;-73
2021/06/12 02:51:10;;;;;;;21.57;11.40;;;13.60;99.90;;;;;;4996375;28;20694;-74
2021/06/12 02:53:40;;;;;;;15.53;10.60;;;13.50;99.90;;;;;;4996130;28;20207;-72
2021/06/12 02:56:08;;;;;;;14.27;10.93;;;13.50;99.90;;;;;;4995221;28;20220;-72
2021/06/12 02:58:36;;;;;;;16.80;11.07;;;13.50;99.90;;;;;;4994338;28;20232;-75
2021/06/12 03:01:03;;;;;;;14.00;10.70;;;13.50;99.90;;;;;;4996138;28;20260;-74
2021/06/12 03:03:32;;;;;;;14.47;10.90;;;13.50;99.90;;;;;;4997121;28;20223;-74
2021/06/12 03:06:00;;;;;;;15.10;10.07;;;13.40;99.90;;;;;;4995532;28;20941;-74
2021/06/12 03:08:33;;;;;;;15.57;10.77;;;13.40;99.90;;;;;;4996235;28;20259;-75
2021/06/12 03:11:02;;;;;;;15.40;10.70;;;13.50;99.90;;;;;;4994664;28;20235;-75
2021/06/12 03:13:30;;;;;;;21.10;11.13;;;13.40;99.90;;;;;;4996833;28;20629;-75
2021/06/12 03:16:00;;;;;;;15.23;11.10;;;13.40;99.90;;;;;;4995430;28;20262;-74
2021/06/12 03:18:27;;;;;;;15.03;10.97;;;13.30;99.90;;;;;;4994500;28;20213;-74
2021/06/12 03:20:58;;;;;;;18.10;11.53;;;13.30;99.90;;;;;;4995272;28;20630;-74
2021/06/12 03:23:27;;;;;;;16.53;11.77;;;13.40;99.90;;;;;;4995699;28;20295;-74
2021/06/12 03:25:55;;;;;;;14.73;11.30;;;13.30;99.90;;;;;;4996193;28;20292;-74
2021/06/12 03:28:22;;;;;;;15.13;11.67;;;13.40;99.90;;;;;;4994950;28;20208;-75
2021/06/12 03:30:49;;;;;;;15.97;11.63;;;13.40;99.90;;;;;;4993380;28;20328;-75
2021/06/12 03:33:17;;;;;;;17.83;11.83;;;13.40;99.90;;;;;;4998837;28;20304;-74
2021/06/12 03:35:45;;;;;;;14.83;11.67;;;13.40;99.90;;;;;;4992431;28;20236;-72
2021/06/12 03:38:13;;;;;;;16.20;11.07;;;13.30;99.90;;;;;;4992520;28;20295;-74
2021/06/12 03:40:39;;;;;;;15.27;11.63;;;13.30;99.90;;;;;;4992912;28;20231;-75
2021/06/12 03:43:08;;;;;;;17.87;11.17;;;13.40;99.90;;;;;;4995643;28;20235;-73
2021/06/12 03:45:40;;;;;;;15.13;11.33;;;13.50;99.90;;;;;;4996677;28;20207;-74
2021/06/12 03:48:08;;;;;;;17.30;10.77;;;13.50;99.90;;;;;;4993273;28;21040;-74
2021/06/12 03:50:36;;;;;;;14.97;10.77;;;13.60;99.90;;;;;;4994474;28;20343;-75
2021/06/12 03:53:04;;;;;;;15.87;10.67;;;13.60;99.90;;;;;;4994860;28;20204;-72
2021/06/12 03:55:30;;;;;;;14.13;10.60;;;13.70;99.90;;;;;;4992517;28;20213;-75
2021/06/12 03:57:57;;;;;;;17.43;10.20;;;13.70;99.90;;;;;;4995325;28;20464;-75
2021/06/12 04:00:24;;;;;;;15.93;10.43;;;13.80;99.90;;;;;;4992699;28;20752;-74
2021/06/12 04:02:51;;;;;;;13.70;10.13;;;14.00;99.90;;;;;;4993219;28;20753;-72
2021/06/12 04:05:18;;;;;;;14.93;9.80;;;14.10;99.90;;;;;;4994240;28;20332;-75
2021/06/12 04:07:46;;;;;;;15.23;10.50;;;14.30;99.90;;;;;;4994443;28;21647;-75
2021/06/12 04:10:13;;;;;;;12.93;9.03;;;14.50;99.90;;;;;;4995793;28;20814;-74
2021/06/12 04:12:40;;;;;;;12.67;9.27;;;14.60;99.90;;;;;;4994786;28;20262;-75
2021/06/12 04:15:07;;;;;;;15.30;9.63;;;14.70;99.90;;;;;;4995925;28;20211;-74
2021/06/12 04:17:34;;;;;;;15.23;9.67;;;14.80;99.90;;;;;;4993406;28;20296;-72
2021/06/12 04:20:00;;;;;;;12.37;9.23;;;14.80;99.90;;;;;;4993621;28;20257;-75
2021/06/12 04:22:27;;;;;;;13.30;10.03;;;14.80;99.90;;;;;;4991510;28;20205;-74
2021/06/12 04:24:55;;;;;;;18.27;9.43;;;14.80;99.90;;;;;;4995344;28;20285;-75
2021/06/12 04:27:21;;;;;;;11.73;9.93;;;14.80;99.90;;;;;;4995807;28;20238;-73
2021/06/12 04:29:48;;;;;;;12.67;8.70;;;14.90;99.90;;;;;;4995501;28;20734;-72
2021/06/12 04:32:14;;;;;;;12.87;9.27;;;15.00;99.90;;;;;;4998034;28;20225;-73
2021/06/12 04:34:40;;;;;;;12.20;9.20;;;15.10;99.90;;;;;;4991352;28;20296;-73
2021/06/12 04:37:08;;;;;;;15.37;8.63;;;15.30;99.90;;;;;;4994117;28;20204;-71
2021/06/12 04:39:34;;;;;;;11.70;8.47;;;15.60;99.90;;;;;;4992277;28;20728;-71
2021/06/12 04:42:02;;;;;;;12.63;8.33;;;15.80;99.90;;;;;;4993810;28;20311;-71
2021/06/12 04:44:28;;;;;;;11.33;8.33;;;16.00;99.90;;;;;;4994230;28;20952;-71
2021/06/12 04:46:55;;;;;;;11.83;8.30;;;16.20;99.90;;;;;;4993946;28;20577;-71
2021/06/12 04:49:21;;;;;;;8.97;7.50;;;16.30;99.90;;;;;;4996110;28;20207;-71
2021/06/12 04:51:48;;;;;;;11.47;8.27;;;16.30;99.90;;;;;;4995343;28;20315;-71
2021/06/12 04:54:14;;;;;;;15.97;8.47;;;16.40;99.90;;;;;;4997049;28;20233;-72
2021/06/12 04:56:42;;;;;;;16.13;8.40;;;16.40;99.90;;;;;;4994978;28;20301;-72
2021/06/12 04:59:09;;;;;;;14.57;8.57;;;16.40;99.90;;;;;;4990644;28;20221;-72
2021/06/12 05:01:36;;;;;;;10.17;8.33;;;16.40;99.90;;;;;;4993138;28;20692;-72
2021/06/12 05:04:03;;;;;;;13.07;8.70;;;16.50;99.90;;;;;;4995625;28;20330;-73
2021/06/12 05:06:29;;;;;;;11.10;8.27;;;16.60;99.90;;;;;;4993230;28;20702;-71
2021/06/12 05:08:55;;;;;;;10.47;8.10;;;16.90;99.90;;;;;;4998732;28;20745;-71
2021/06/12 05:11:22;;;;;;;11.10;8.00;;;17.10;99.90;;;;;;4993822;28;20221;-72
2021/06/12 05:13:48;;;;;;;15.33;7.70;;;17.40;99.90;;;;;;4993763;28;20291;-72
2021/06/12 05:16:16;;;;;;;8.60;7.07;;;17.60;99.90;;;;;;4994119;28;20263;-71
2021/06/12 05:18:43;;;;;;;10.07;7.00;;;17.60;99.90;;;;;;4992305;28;20288;-72
2021/06/12 05:21:11;;;;;;;8.43;7.23;;;17.80;99.90;;;;;;4993034;28;20400;-74
2021/06/12 05:23:37;;;;;;;11.63;7.30;;;18.20;99.90;;;;;;4992719;28;20824;-74
2021/06/12 05:26:04;;;;;;;9.43;7.20;;;18.90;99.90;;;;;;4995340;28;20235;-74
2021/06/12 05:28:31;;;;;;;8.87;6.80;;;19.80;99.90;;;;;;4996946;28;20243;-74
2021/06/12 05:30:57;;;;;;;11.87;6.93;;;20.20;99.90;;;;;;4997849;28;20361;-74
2021/06/12 05:33:26;;;;;;;12.50;7.27;;;20.10;99.90;;;;;;4998510;28;20208;-74
2021/06/12 05:35:55;;;;;;;8.80;6.40;;;19.90;99.90;;;;;;4995595;28;20208;-74
2021/06/12 05:38:22;;;;;;;8.83;6.47;;;19.80;99.90;;;;;;4994525;28;20204;-75
2021/06/12 05:40:49;;;;;;;9.87;6.23;;;20.10;99.90;;;;;;4996806;28;20252;-75
2021/06/12 05:43:15;;;;;;;9.00;6.40;;;20.60;99.90;;;;;;4995840;28;20212;-73
2021/06/12 05:45:43;;;;;;;8.03;6.07;;;21.00;99.90;;;;;;4997389;28;20212;-73
2021/06/12 05:48:10;;;;;;;8.13;5.67;;;21.00;99.90;;;;;;5004012;28;20299;-73
2021/06/12 05:50:37;;;;;;;8.47;5.80;;;21.20;99.90;;;;;;5003642;28;20322;-73
2021/06/12 05:53:04;;;;;;;9.13;5.70;;;21.90;99.90;;;;;;5000961;28;20208;-75
2021/06/12 05:55:30;;;;;;;10.30;5.40;;;22.40;99.90;;;;;;5000008;28;20207;-75
2021/06/12 05:57:57;;;;;;;9.63;5.30;;;23.00;99.90;;;;;;5010023;28;20581;-74
2021/06/12 06:00:24;;;;;;;10.63;5.53;;;23.30;99.90;;;;;;5006636;28;20683;-78
2021/06/12 06:02:50;;;;;;;6.90;5.00;;;23.40;99.90;;;;;;5002237;28;20212;-74
2021/06/12 06:05:17;;;;;;;11.20;5.63;;;23.70;99.90;;;;;;5006173;28;20763;-75
2021/06/12 06:07:45;;;;;;;7.63;5.00;;;23.80;99.90;;;;;;5004967;28;20926;-74
2021/06/12 06:10:12;;;;;;;13.90;5.40;;;24.10;99.90;;;;;;4999276;28;20662;-75
2021/06/12 06:12:38;;;;;;;6.37;4.60;;;24.80;99.90;;;;;;4997348;28;20200;-75
2021/06/12 06:15:06;;;;;;;8.73;5.00;;;;;;;;;;4991067;28;20219;-76
2021/06/12 06:17:33;;;;;;;8.30;5.80;;;;;;;;;;4995810;28;20573;-75
2021/06/12 06:20:00;;;;;;;8.93;5.87;;;;;;;;;;4991353;28;20228;-76
2021/06/12 06:22:27;;;;;;;8.63;5.83;;;;;;;;;;4992265;28;20237;-76
2021/06/12 06:24:55;;;;;;;11.47;6.90;;;;;;;;;;4997359;28;21037;-76
2021/06/12 06:27:21;;;;;;;13.20;6.67;;;;;;;;;;5002540;28;20211;-75
2021/06/12 06:29:48;;;;;;;11.23;7.07;;;;;;;;;;5001687;28;20703;-75
2021/06/12 06:32:15;;;;;;;13.53;8.00;;;;;;;;;;5000950;28;20257;-75
2021/06/12 06:34:42;;;;;;;15.57;7.70;;;;;;;;;;4992854;28;20211;-76
2021/06/12 06:37:08;;;;;;;16.83;10.37;;;;;;;;;;4994972;28;20207;-76
2021/06/12 06:39:35;;;;;;;26.90;13.13;;;;;;;;;;4996418;28;20592;-75
2021/06/12 06:42:04;;;;;;;19.63;10.90;;;;;;;;;;4994246;28;20294;-75
2021/06/12 06:44:32;;;;;;;19.80;12.67;;;;;;;;;;4991587;28;20205;-75
2021/06/12 06:46:59;;;;;;;24.07;14.47;;;;;;;;;;4993650;28;20237;-75
2021/06/12 06:49:26;;;;;;;24.87;15.17;;;;;;;;;;4998258;28;20209;-76
2021/06/12 06:51:52;;;;;;;22.63;13.40;;;;;;;;;;4999257;28;20737;-75
2021/06/12 06:54:19;;;;;;;31.27;16.73;;;;;;;;;;4998399;28;20264;-73
2021/06/12 06:56:46;;;;;;;26.80;15.10;;;;;;;;;;4998002;28;20212;-74
2021/06/12 06:59:16;;;;;;;33.47;16.93;;;;;;;;;;4996649;28;20232;-73
2021/06/12 07:01:42;;;;;;;26.43;15.43;;;;;;;;;;4998707;28;20751;-75
2021/06/12 07:04:09;;;;;;;19.37;11.33;;;;;;;;;;4992994;28;20236;-75
2021/06/12 07:06:36;;;;;;;27.37;16.00;;;;;;;;;;4993449;28;20734;-76
2021/06/12 07:09:03;;;;;;;25.57;15.60;;;;;;;;;;4997009;28;20213;-75
2021/06/12 07:11:30;;;;;;;30.63;16.67;;;;;;;;;;5001304;28;20233;-76
2021/06/12 07:13:56;;;;;;;32.33;16.33;;;25.60;99.90;;;;;;4999385;28;20735;-75
2021/06/12 07:16:24;;;;;;;31.43;15.97;;;24.70;99.90;;;;;;4999862;28;20231;-74
2021/06/12 07:18:51;;;;;;;30.97;17.10;;;24.10;99.90;;;;;;4996899;28;20221;-74
2021/06/12 07:21:17;;;;;;;31.30;16.53;;;23.50;99.90;;;;;;4999605;28;20251;-74
2021/06/12 07:23:44;;;;;;;30.83;16.93;;;23.50;99.90;;;;;;5002044;28;20681;-75
2021/06/12 07:26:10;;;;;;;24.97;14.20;;;24.00;99.90;;;;;;5002710;28;20213;-74
2021/06/12 07:28:37;;;;;;;29.93;16.83;;;24.50;99.90;;;;;;5005756;28;20208;-74
2021/06/12 07:31:04;;;;;;;25.33;14.93;;;;;;;;;;5001761;28;20561;-74
2021/06/12 07:33:32;;;;;;;24.20;14.23;;;;;;;;;;5000766;28;20208;-77
2021/06/12 07:35:59;;;;;;;21.33;12.37;;;24.90;99.90;;;;;;4999228;28;20197;-75
2021/06/12 07:38:26;;;;;;;26.77;15.17;;;;;;;;;;4995143;28;20246;-74
2021/06/12 07:40:53;;;;;;;27.57;13.70;;;;;;;;;;5000179;28;20228;-74
2021/06/12 07:43:20;;;;;;;22.90;14.20;;;;;;;;;;4993891;28;20217;-76
2021/06/12 07:45:47;;;;;;;22.63;13.23;;;;;;;;;;4997413;28;20207;-74
2021/06/12 07:48:14;;;;;;;24.70;14.43;;;;;;;;;;4997449;28;20797;-75
2021/06/12 07:50:42;;;;;;;24.23;14.73;;;;;;;;;;4991657;28;20228;-75
2021/06/12 07:53:09;;;;;;;27.27;14.50;;;;;;;;;;4998245;28;20213;-74
2021/06/12 07:55:36;;;;;;;26.53;15.03;;;;;;;;;;4992683;28;20212;-74
2021/06/12 07:58:03;;;;;;;21.53;13.70;;;;;;;;;;5005575;28;20212;-74
2021/06/12 08:00:30;;;;;;;22.80;13.07;;;;;;;;;;5001025;28;20247;-75
2021/06/12 08:02:57;;;;;;;21.63;14.33;;;;;;;;;;4999342;28;20206;-75
2021/06/12 08:05:24;;;;;;;24.87;14.37;;;;;;;;;;5000073;28;20212;-74
2021/06/12 08:07:53;;;;;;;22.27;13.40;;;;;;;;;;4991707;28;20218;-76
2021/06/12 08:10:20;;;;;;;20.77;13.03;;;;;;;;;;4999241;28;20690;-75
2021/06/12 08:12:46;;;;;;;18.73;10.87;;;;;;;;;;4999515;28;20200;-74
2021/06/12 08:15:14;;;;;;;20.20;13.13;;;;;;;;;;4999981;28;20197;-75
2021/06/12 08:17:41;;;;;;;18.77;10.83;;;;;;;;;;5006565;28;20206;-74
2021/06/12 08:20:08;;;;;;;19.07;11.70;;;;;;;;;;4995153;28;20224;-73
2021/06/12 08:22:35;;;;;;;17.63;11.50;;;;;;;;;;4994711;28;20252;-74
2021/06/12 08:25:03;;;;;;;16.67;10.07;;;;;;;;;;4993868;28;20204;-73
2021/06/12 08:27:30;;;;;;;15.60;9.37;;;;;;;;;;4997593;28;20205;-74
2021/06/12 08:29:57;;;;;;;14.53;8.53;;;;;;;;;;4991032;28;20209;-74
2021/06/12 08:32:24;;;;;;;10.50;7.20;;;;;;;;;;4997722;28;20221;-74
2021/06/12 08:34:51;;;;;;;11.70;7.17;;;;;;;;;;4990723;28;20682;-74
2021/06/12 08:37:18;;;;;;;11.87;6.60;;;;;;;;;;4995301;28;20257;-74
2021/06/12 08:39:44;;;;;;;10.63;6.30;;;;;;;;;;4989936;28;20237;-74
2021/06/12 08:42:13;;;;;;;8.70;5.30;;;;;;;;;;4991259;28;20235;-75
2021/06/12 08:44:41;;;;;;;7.90;4.57;;;;;;;;;;4993089;28;20218;-74
2021/06/12 08:47:08;;;;;;;7.77;4.77;;;;;;;;;;4991728;28;20711;-74
2021/06/12 08:49:35;;;;;;;5.57;4.40;;;;;;;;;;4990866;28;20225;-74
2021/06/12 08:52:01;;;;;;;10.70;3.20;;;;;;;;;;4990890;28;20225;-75
2021/06/12 08:54:28;;;;;;;5.27;3.03;;;;;;;;;;4991907;28;20211;-74
2021/06/12 08:56:55;;;;;;;4.23;3.47;;;;;;;;;;4993173;28;20277;-74
2021/06/12 08:59:24;;;;;;;6.40;3.40;;;;;;;;;;4991276;28;20209;-73
2021/06/12 09:01:51;;;;;;;5.33;3.70;;;;;;;;;;4993950;28;20231;-74
2021/06/12 09:04:28;;;;;;;5.10;3.60;;;;;;;;;;4990823;28;20291;-75
2021/06/12 09:07:09;;;;;;;5.43;3.60;;;;;;;;;;4992647;28;20312;-74
2021/06/12 09:09:46;;;;;;;4.50;3.70;;;;;;;;;;4999438;28;20685;-74
2021/06/12 09:12:12;;;;;;;7.67;3.60;;;;;;;;;;5000452;28;20242;-74
2021/06/12 09:14:41;;;;;;;6.03;3.40;;;;;;;;;;4993314;28;20200;-74
2021/06/12 09:17:08;;;;;;;5.83;3.20;;;;;;;;;;4995542;28;20722;-74
2021/06/12 09:19:39;;;;;;;4.30;2.80;;;;;;;;;;4993839;28;20772;-74
2021/06/12 09:22:07;;;;;;;4.63;3.20;;;;;;;;;;4994037;28;20228;-74
2021/06/12 09:24:35;;;;;;;4.97;2.70;;;;;;;;;;4990719;28;20220;-74
2021/06/12 09:27:03;;;;;;;6.57;2.43;;;;;;;;;;4994620;28;20216;-73
2021/06/12 09:29:39;;;;;;;7.70;2.70;;;;;;;;;;4996199;28;20201;-73
2021/06/12 09:32:12;;;;;;;3.60;2.30;;;;;;;;;;4993335;28;20224;-74
2021/06/12 09:34:39;;;;;;;3.33;2.23;;;;;;;;;;4992633;28;20200;-75
2021/06/12 09:37:10;;;;;;;3.13;2.33;;;;;;;;;;4993104;28;20234;-73
2021/06/12 09:39:37;;;;;;;4.90;2.17;;;;;;;;;;4989132;28;20616;-75
2021/06/12 09:42:04;;;;;;;4.97;2.00;;;;;;;;;;4994323;28;20220;-73
2021/06/12 09:44:32;;;;;;;3.70;2.07;;;;;;;;;;4992823;28;20663;-73
2021/06/12 09:46:59;;;;;;;2.37;1.83;;;;;;;;;;4994493;28;20696;-73
2021/06/12 09:49:34;;;;;;;3.10;2.00;;;;;;;;;;4995380;28;20203;-75
2021/06/12 09:52:03;;;;;;;3.30;1.90;;;;;;;;;;4997672;28;20216;-74
2021/06/12 09:54:37;;;;;;;2.57;1.90;;;;;;;;;;4999099;28;20259;-74
2021/06/12 09:57:04;;;;;;;2.30;1.93;;;;;;;;;;5000210;28;20204;-73
2021/06/12 09:59:38;;;;;;;5.07;2.30;;;;;;;;;;4996346;28;20209;-73
2021/06/12 10:02:05;;;;;;;3.13;2.60;;;;;;;;;;5001780;28;20301;-73
2021/06/12 10:04:34;;;;;;;4.20;2.40;;;;;;;;;;4998448;28;20291;-74
2021/06/12 10:07:00;;;;;;;3.23;2.43;;;;;;;;;;4999579;28;20213;-74
2021/06/12 10:09:28;;;;;;;3.20;2.20;;;;;;;;;;5002018;28;20200;-74
2021/06/12 10:11:55;;;;;;;4.40;2.20;;;;;;;;;;5002130;28;20228;-73
2021/06/12 10:14:22;;;;;;;3.73;2.30;;;;;;;;;;4995729;28;20209;-75
2021/06/12 10:16:50;;;;;;;2.63;2.20;;;;;;;;;;4997819;28;20208;-74
2021/06/12 10:19:18;;;;;;;5.60;2.83;;;;;;;;;;4997657;28;20205;-74
2021/06/12 10:21:47;;;;;;;4.20;2.70;;;;;;;;;;4995072;28;20224;-74
2021/06/12 10:24:14;;;;;;;8.13;2.67;;;;;;;;;;4995042;28;20231;-73
2021/06/12 10:26:41;;;;;;;6.67;2.50;;;;;;;;;;4999235;28;20205;-74
2021/06/12 10:29:08;;;;;;;5.20;2.30;;;;;;;;;;4999739;28;20232;-73
2021/06/12 10:31:37;;;;;;;3.07;2.60;;;;;;;;;;5000425;28;20232;-74
2021/06/12 10:34:05;;;;;;;5.27;2.93;;;;;;;;;;4996390;28;20216;-74
2021/06/12 10:36:33;;;;;;;3.97;2.80;;;;;;;;;;4997149;28;20216;-74
2021/06/12 10:39:01;;;;;;;4.37;2.77;;;;;;;;;;4999659;28;20260;-74
2021/06/12 10:41:29;;;;;;;4.10;2.87;;;;;;;;;;4999745;28;20235;-73
2021/06/12 10:43:57;;;;;;;4.90;2.70;;;;;;;;;;5008439;28;20208;-74
2021/06/12 10:46:25;;;;;;;3.57;3.20;;;;;;;;;;5000048;28;20209;-74
2021/06/12 10:48:53;;;;;;;9.13;3.37;;;;;;;;;;5005178;28;20286;-76
2021/06/12 10:51:35;;;;;;;5.53;3.63;;;;;;;;;;5003900;28;20221;-74
2021/06/12 10:54:20;;;;;;;7.47;3.57;;;;;;;;;;4988512;28;20222;-74
2021/06/12 10:56:47;;;;;;;4.60;3.53;;;;;;;;;;5000397;28;20753;-73
2021/06/12 10:59:41;;;;;;;6.07;4.40;;;26.00;99.90;;;;;;4997991;28;20302;-74
2021/06/12 11:02:11;;;;;;;6.63;4.23;;;23.30;99.90;;;;;;4998028;28;20564;-73
2021/06/12 11:07:23;;;;;;;8.63;5.70;;;23.40;99.90;;;;;;4966983;28;20227;-73
2021/06/12 11:09:51;;;;;;;7.27;5.20;;;23.80;99.90;;;;;;4962975;28;20579;-73
2021/06/12 11:12:35;;;;;;;11.17;7.07;;;24.00;99.90;;;;;;4965593;28;20229;-73
2021/06/12 11:15:06;;;;;;;12.10;6.80;;;24.00;99.90;;;;;;4964427;28;20212;-73
2021/06/12 11:17:32;;;;;;;12.60;6.80;;;24.30;99.90;;;;;;4965827;28;20300;-73
2021/06/12 11:20:25;;;;;;;7.73;6.10;;;24.20;99.90;;;;;;4965226;28;20326;-73
2021/06/12 11:22:54;;;;;;;11.53;6.70;;;23.80;99.90;;;;;;4964166;28;20746;-73
2021/06/12 11:25:48;;;;;;;8.47;5.53;;;23.30;99.90;;;;;;4964359;28;20206;-72
2021/06/12 11:28:29;;;;;;;12.23;6.90;;;22.50;99.90;;;;;;4964614;28;20555;-73
2021/06/12 11:31:33;;;;;;;10.63;6.67;;;22.00;99.90;;;;;;4961920;28;20312;-72
2021/06/12 11:34:23;;;;;;;8.73;6.23;;;21.10;99.90;;;;;;4964612;28;20205;-72
2021/06/12 11:37:20;;;;;;;9.53;6.53;;;20.40;99.90;;;;;;4962403;28;20198;-72
2021/06/12 11:39:53;;;;;;;13.27;7.33;;;20.20;99.90;;;;;;4966200;28;20284;-72
2021/06/12 11:42:21;;;;;;;8.60;6.90;;;20.00;99.90;;;;;;4963054;28;20341;-73
2021/06/12 11:44:47;;;;;;;12.90;7.43;;;20.10;99.90;;;;;;4965550;28;20336;-72
2021/06/12 11:47:25;;;;;;;8.97;6.97;;;20.40;99.90;;;;;;4963415;28;20293;-73
2021/06/12 11:49:52;;;;;;;11.03;7.97;;;21.00;99.90;;;;;;4962209;28;20349;-72
2021/06/12 11:52:18;;;;;;;9.13;7.43;;;21.50;99.90;;;;;;4962962;28;20316;-73
2021/06/12 11:54:45;;;;;;;7.53;5.97;;;22.00;99.90;;;;;;4963511;28;20296;-73
2021/06/12 11:57:11;;;;;;;10.33;6.77;;;22.50;99.90;;;;;;4966338;28;20560;-73
2021/06/12 11:59:40;;;;;;;8.47;6.83;;;22.90;99.90;;;;;;4965104;28;20203;-73
2021/06/12 12:02:07;;;;;;;9.10;6.03;;;22.80;99.90;;;;;;4962383;28;20222;-73
2021/06/12 12:04:35;;;;;;;7.07;5.47;;;22.80;99.90;;;;;;4965565;28;20256;-73
2021/06/12 12:07:05;;;;;;;8.20;5.70;;;22.90;99.90;;;;;;4983859;28;20210;-73
2021/06/12 12:09:34;;;;;;;7.27;5.87;;;23.00;99.90;;;;;;4984902;28;20373;-73
2021/06/12 12:12:02;;;;;;;8.87;6.10;;;23.10;99.90;;;;;;4986480;28;20233;-73
2021/06/12 12:14:31;;;;;;;8.17;5.50;;;23.20;99.90;;;;;;4984199;28;20292;-73
2021/06/12 12:16:59;;;;;;;7.40;5.60;;;23.40;99.90;;;;;;4985684;28;20241;-73
2021/06/12 12:19:25;;;;;;;5.70;4.90;;;23.80;99.90;;;;;;4984216;28;20210;-73
2021/06/12 12:21:53;;;;;;;8.00;5.53;;;24.10;99.90;;;;;;4982624;28;20316;-73
2021/06/12 12:24:21;;;;;;;7.43;5.40;;;24.40;99.90;;;;;;4978316;28;20300;-73
2021/06/12 12:27:00;;;;;;;9.10;5.50;;;24.70;99.90;;;;;;4986010;28;20226;-73
2021/06/12 12:29:28;;;;;;;6.73;5.27;;;24.80;99.90;;;;;;4981011;28;20214;-73
2021/06/12 12:31:56;;;;;;;6.77;5.07;;;24.70;99.90;;;;;;4982258;28;20231;-73
2021/06/12 12:34:29;;;;;;;8.00;5.40;;;24.70;99.90;;;;;;4979579;28;20683;-73
2021/06/12 12:36:56;;;;;;;8.50;5.20;;;23.90;99.90;;;;;;4983621;28;20202;-73
2021/06/12 12:39:23;;;;;;;8.03;5.40;;;23.80;99.90;;;;;;4982956;28;20319;-73
2021/06/12 12:41:54;;;;;;;7.30;5.37;;;23.70;99.90;;;;;;4983751;28;20267;-73
2021/06/12 12:44:21;;;;;;;6.73;5.40;;;23.70;99.90;;;;;;4984984;28;20667;-73
2021/06/12 12:46:49;;;;;;;7.60;6.43;;;23.70;99.90;;;;;;4980991;28;20302;-73
2021/06/12 12:49:18;;;;;;;5.87;5.03;;;24.00;99.90;;;;;;4983994;28;20252;-75
2021/06/12 12:51:57;;;;;;;7.80;6.37;;;24.00;99.90;;;;;;4985384;28;20249;-73
2021/06/12 12:54:24;;;;;;;7.50;6.00;;;23.70;99.90;;;;;;4981731;28;20207;-73
2021/06/12 12:56:53;;;;;;;7.87;6.00;;;24.00;99.90;;;;;;4980057;28;21679;-73
2021/06/12 12:59:31;;;;;;;8.40;6.67;;;24.30;99.90;;;;;;4977737;28;20214;-73
2021/06/12 13:01:57;;;;;;;9.40;6.57;;;24.10;99.90;;;;;;4983570;28;20630;-73
2021/06/12 13:04:33;;;;;;;10.77;6.60;;;24.10;99.90;;;;;;4984220;28;20220;-73
2021/06/12 13:07:15;;;;;;;9.70;6.57;;;24.40;99.90;;;;;;4981853;28;20222;-73
2021/06/12 13:09:44;;;;;;;8.13;6.53;;;24.90;99.90;;;;;;4984712;28;20211;-73
2021/06/12 13:12:14;;;;;;;12.40;6.10;;;25.10;99.90;;;;;;4982592;28;20268;-73
2021/06/12 13:14:42;;;;;;;11.27;6.13;;;25.10;99.90;;;;;;4983262;28;20204;-73
2021/06/12 13:17:11;;;;;;;9.40;6.13;;;24.90;99.90;;;;;;4983297;28;20600;-73
2021/06/12 13:19:40;;;;;;;11.43;6.23;;;24.70;99.90;;;;;;4981860;28;20201;-73
2021/06/12 13:22:07;;;;;;;8.43;6.20;;;24.90;99.90;;;;;;4981636;28;20306;-73